Time;durP1;ratioP1;P1;durP2;ratioP2;P2;SDS_P1;SDS_P2;PMS_P1;PMS_P2;Temp;Humidity;BMP_temperature;BMP_pressure;BME280_temperature;BME280_humidity;BME280_pressure;Samples;Min_cycle;Max_cycle;Signal;HPM_P1;HPM_P2
2022/05/30 00:00:54;;;;;;;9.90;2.20;;;;;;;11.46;66.31;99773.58;52652;1273;1016261;-63
2022/05/30 00:03:24;;;;;;;11.00;2.00;;;;;;;11.45;66.47;99771.08;52582;1275;1017822;-64
2022/05/30 00:05:54;;;;;;;11.10;2.70;;;;;;;11.44;66.55;99770.41;52595;1274;1015907;-63
2022/05/30 00:08:23;;;;;;;15.90;2.30;;;;;;;11.43;66.64;99771.88;52571;1273;1016284;-63
2022/05/30 00:10:52;;;;;;;9.10;2.10;;;;;;;11.40;66.67;99772.16;52698;1273;1016438;-64
2022/05/30 00:13:22;;;;;;;10.10;2.10;;;;;;;11.37;66.82;99765.27;52638;1273;1016450;-64
2022/05/30 00:16:17;;;;;;;7.70;1.70;;;;;;;11.34;66.91;99765.96;52492;1274;1016572;-63
2022/05/30 00:19:20;;;;;;;10.90;2.10;;;;;;;11.35;66.89;99762.47;52218;1284;1016666;-64
2022/05/30 00:22:14;;;;;;;12.10;2.90;;;;;;;11.35;66.98;99763.98;52214;1282;1018987;-63
2022/05/30 00:24:56;;;;;;;;;;;;;;;11.35;67.07;99764.20;52261;1285;1017044;-63
2022/05/30 00:27:43;;;;;;;9.80;2.60;;;;;;;11.33;67.11;99761.69;52203;1282;1016215;-64
2022/05/30 00:30:14;;;;;;;10.60;2.50;;;;;;;11.32;67.16;99767.83;52374;1282;1016782;-64
2022/05/30 00:32:44;;;;;;;9.90;2.20;;;;;;;11.32;67.17;99765.80;52254;1282;1016068;-63
2022/05/30 00:35:14;;;;;;;7.50;1.80;;;;;;;11.32;67.22;99764.57;52248;1281;1016731;-63
2022/05/30 00:37:43;;;;;;;12.00;2.30;;;;;;;11.33;67.26;99770.77;52277;1281;1016718;-64
2022/05/30 00:40:13;;;;;;;11.80;2.50;;;;;;;11.32;67.35;99765.29;52385;1281;1016626;-64
2022/05/30 00:42:42;;;;;;;9.90;2.00;;;;;;;11.33;67.39;99764.54;52359;1281;1016433;-63
2022/05/30 00:45:12;;;;;;;11.00;2.20;;;;;;;11.34;67.47;99756.81;52257;1282;1016630;-63
2022/05/30 00:47:41;;;;;;;8.60;1.90;;;;;;;11.34;67.50;99756.96;52310;1282;1016442;-64
2022/05/30 00:50:11;;;;;;;13.20;2.60;;;;;;;11.34;67.55;99755.80;52351;1282;1016493;-63
2022/05/30 00:52:44;;;;;;;12.50;2.30;;;;;;;11.32;67.67;99755.48;52422;1280;1016405;-63
2022/05/30 00:55:15;;;;;;;14.50;2.70;;;;;;;11.31;67.79;99753.79;52609;1273;1016683;-63
2022/05/30 00:57:46;;;;;;;12.20;2.30;;;;;;;11.29;67.73;99749.61;52601;1276;1016152;-63
2022/05/30 01:00:20;;;;;;;9.80;2.20;;;;;;;11.28;67.91;99750.58;52486;1273;1015967;-63
2022/05/30 01:06:30;;;;;;;7.80;1.90;;;;;;;11.28;68.07;99746.20;52605;1273;1018739;-64
2022/05/30 01:08:32;;;;;;;15.40;2.20;;;;;;;11.27;67.90;99744.31;52548;1273;1017137;-64
2022/05/30 01:11:02;;;;;;;11.00;2.00;;;;;;;11.27;68.11;99745.29;52593;1273;1016270;-64
2022/05/30 01:13:31;;;;;;;12.30;1.90;;;;;;;11.28;68.00;99740.30;52710;1273;1016687;-63
2022/05/30 01:16:00;;;;;;;9.30;1.80;;;;;;;11.29;68.05;99737.67;52580;1274;1016206;-63
2022/05/30 01:18:33;;;;;;;10.10;1.70;;;;;;;11.28;68.17;99731.71;52604;1275;1018056;-63
2022/05/30 01:21:25;;;;;;;10.30;2.50;;;;;;;11.27;68.13;99728.62;52511;1273;1016067;-63
2022/05/30 01:24:00;;;;;;;10.90;2.30;;;;;;;11.26;68.10;99727.70;52470;1275;1016764;-63
2022/05/30 01:26:41;;;;;;;11.10;2.00;;;;;;;11.27;68.05;99724.95;52579;1274;1015944;-63
2022/05/30 01:29:16;;;;;;;11.60;2.00;;;;;;;11.26;68.25;99722.96;52516;1273;1016672;-63
2022/05/30 01:31:46;;;;;;;10.10;2.00;;;;;;;11.26;68.23;99725.91;52637;1277;1015577;-63
2022/05/30 01:34:15;;;;;;;10.50;2.00;;;;;;;11.25;68.32;99721.95;52588;1273;1016078;-63
2022/05/30 01:36:44;;;;;;;9.40;1.70;;;;;;;11.24;68.31;99715.48;52587;1274;1016343;-63
2022/05/30 01:39:13;;;;;;;7.60;2.20;;;;;;;11.24;68.39;99717.00;52558;1274;1016301;-63
2022/05/30 01:41:42;;;;;;;10.30;2.40;;;;;;;11.23;68.39;99716.59;52511;1276;1016114;-63
2022/05/30 01:44:12;;;;;;;11.00;2.20;;;;;;;11.23;68.41;99715.48;52590;1273;1016569;-64
2022/05/30 01:46:42;;;;;;;8.90;2.30;;;;;;;11.21;68.46;99715.55;52588;1273;1015682;-64
2022/05/30 01:49:11;;;;;;;10.20;1.90;;;;;;;11.21;68.42;99720.29;52499;1273;1016410;-63
2022/05/30 01:51:44;;;;;;;12.40;2.00;;;;;;;11.19;68.46;99725.59;52602;1274;1016229;-64
2022/05/30 01:54:14;;;;;;;8.50;1.60;;;;;;;11.17;68.64;99722.38;52577;1274;1016632;-64
2022/05/30 01:56:43;;;;;;;8.00;1.90;;;;;;;11.14;68.58;99725.71;52548;1273;1016529;-64
2022/05/30 01:59:12;;;;;;;8.50;1.60;;;;;;;11.14;68.89;99724.64;52611;1273;1016779;-63
2022/05/30 02:01:45;;;;;;;9.30;2.10;;;;;;;11.12;68.73;99725.95;52606;1274;1015967;-63
2022/05/30 02:04:15;;;;;;;6.70;1.50;;;;;;;11.11;68.73;99725.17;52550;1274;1017787;-63
2022/05/30 02:06:44;;;;;;;7.00;1.30;;;;;;;11.08;68.78;99723.95;52556;1275;1016710;-63
2022/05/30 02:09:15;;;;;;;7.90;1.80;;;;;;;11.05;68.87;99725.19;52623;1273;1016193;-64
2022/05/30 02:11:44;;;;;;;6.50;1.50;;;;;;;11.05;68.93;99727.11;52547;1274;1016615;-64
2022/05/30 02:14:13;;;;;;;8.50;1.80;;;;;;;11.06;68.95;99724.27;52467;1274;1016467;-64
2022/05/30 02:17:00;;;;;;;8.10;1.60;;;;;;;11.07;68.97;99725.30;52666;1273;1015910;-64
2022/05/30 02:19:34;;;;;;;8.30;1.60;;;;;;;11.08;68.93;99729.52;52657;1273;1016682;-64
2022/05/30 02:22:04;;;;;;;5.40;1.50;;;;;;;11.07;68.99;99729.47;52653;1273;1016658;-64
2022/05/30 02:24:32;;;;;;;;;;;;;;;11.06;69.01;99730.27;52573;1273;1016655;-64
2022/05/30 02:27:02;;;;;;;7.20;1.80;;;;;;;11.03;68.94;99725.27;52501;1275;1016267;-64
2022/05/30 02:29:31;;;;;;;7.10;1.90;;;;;;;11.00;69.07;99723.05;52532;1275;1016625;-64
2022/05/30 02:32:00;;;;;;;8.10;1.50;;;;;;;11.00;69.13;99726.20;52567;1274;1016412;-64
2022/05/30 02:37:19;;;;;;;10.40;1.90;;;;;;;10.96;69.12;99724.90;52592;1274;1016420;-64
2022/05/30 02:39:48;;;;;;;10.50;2.10;;;;;;;10.95;69.09;99724.33;52488;1274;1015916;-63
2022/05/30 02:42:17;;;;;;;11.50;1.40;;;;;;;10.95;69.29;99722.23;52682;1274;1016344;-64
2022/05/30 02:44:46;;;;;;;10.60;2.10;;;;;;;10.95;69.17;99722.48;52642;1274;1016745;-63
2022/05/30 02:47:16;;;;;;;11.10;2.20;;;;;;;10.96;69.09;99722.40;52555;1273;1016653;-63
2022/05/30 02:49:46;;;;;;;10.60;2.90;;;;;;;10.96;69.06;99719.16;52411;1276;1016013;-63
2022/05/30 02:52:16;;;;;;;8.90;1.80;;;;;;;10.97;69.21;99718.85;52621;1275;1019903;-64
2022/05/30 02:54:46;;;;;;;8.20;1.50;;;;;;;10.96;69.30;99721.55;52684;1274;1016733;-64
2022/05/30 02:57:15;;;;;;;7.30;1.60;;;;;;;10.96;69.38;99727.13;52624;1273;1016475;-63
2022/05/30 02:59:44;;;;;;;11.20;1.80;;;;;;;10.97;69.36;99728.14;52495;1275;1017365;-63
2022/05/30 03:02:14;;;;;;;9.70;1.70;;;;;;;10.97;69.33;99726.21;52541;1273;1016660;-64
2022/05/30 03:04:43;;;;;;;9.30;2.50;;;;;;;10.96;69.38;99725.00;52701;1274;1016502;-64
2022/05/30 03:07:12;;;;;;;8.10;1.60;;;;;;;10.95;69.47;99726.60;52487;1273;1016595;-63
2022/05/30 03:09:43;;;;;;;7.00;1.80;;;;;;;10.93;69.47;99727.71;52620;1276;1016284;-63
2022/05/30 03:12:12;;;;;;;6.90;1.60;;;;;;;10.92;69.52;99730.40;52592;1273;1016005;-63
2022/05/30 03:14:41;;;;;;;11.00;2.70;;;;;;;10.93;69.53;99732.63;52622;1273;1018818;-62
2022/05/30 03:17:10;;;;;;;7.70;1.80;;;;;;;10.92;69.71;99737.70;52509;1275;1016691;-63
2022/05/30 03:19:40;;;;;;;8.60;1.80;;;;;;;10.90;69.70;99740.59;52667;1274;1015725;-63
2022/05/30 03:22:09;;;;;;;7.80;1.70;;;;;;;10.90;69.86;99745.06;52585;1275;1015848;-64
2022/05/30 03:24:38;;;;;;;12.60;2.40;;;;;;;10.91;70.07;99744.70;52542;1275;1015852;-64
2022/05/30 03:27:08;;;;;;;9.20;2.40;;;;;;;10.92;70.01;99744.26;52611;1274;1016562;-63
2022/05/30 03:29:37;;;;;;;10.40;1.80;;;;;;;10.92;69.97;99744.92;52675;1275;1016984;-64
2022/05/30 03:32:09;;;;;;;8.30;1.50;;;;;;;10.92;70.23;99745.27;52601;1274;1017502;-63
2022/05/30 03:34:38;;;;;;;12.40;2.30;;;;;;;10.91;70.34;99743.89;52589;1275;1016603;-63
2022/05/30 03:37:07;;;;;;;8.80;1.60;;;;;;;10.92;70.32;99744.50;52707;1274;1015844;-63
2022/05/30 03:39:36;;;;;;;11.10;2.00;;;;;;;10.92;70.50;99746.65;52593;1274;1016414;-62
2022/05/30 03:42:13;;;;;;;7.00;2.10;;;;;;;10.93;70.56;99747.45;52590;1274;1016386;-62
2022/05/30 03:44:43;;;;;;;10.30;2.00;;;;;;;10.93;70.56;99748.94;52498;1276;1016336;-63
2022/05/30 03:47:13;;;;;;;9.80;1.70;;;;;;;10.94;70.67;99749.14;52536;1275;1019204;-63
2022/05/30 03:49:43;;;;;;;8.10;2.00;;;;;;;10.95;70.65;99756.16;52623;1275;1016698;-64
2022/05/30 03:52:20;;;;;;;10.00;1.60;;;;;;;10.97;70.70;99753.98;52823;1274;1016848;-63
2022/05/30 03:54:50;;;;;;;7.80;1.40;;;;;;;10.98;70.83;99758.16;52653;1274;1016795;-64
2022/05/30 03:57:19;;;;;;;9.00;1.40;;;;;;;10.98;70.81;99757.41;52495;1275;1016702;-64
2022/05/30 03:59:49;;;;;;;9.60;1.90;;;;;;;10.98;70.88;99753.91;50403;1276;6437586;-63
2022/05/30 04:02:18;;;;;;;6.20;1.40;;;;;;;10.98;70.89;99746.99;52616;1274;1016220;-64
2022/05/30 04:04:48;;;;;;;8.30;1.50;;;;;;;10.98;71.02;99754.92;52549;1275;1016263;-63
2022/05/30 04:07:17;;;;;;;7.60;1.40;;;;;;;11.00;70.92;99756.41;52486;1277;1016163;-63
2022/05/30 04:09:46;;;;;;;7.60;1.20;;;;;;;11.01;71.12;99750.34;52824;1274;1016179;-63
2022/05/30 04:12:20;;;;;;;8.70;1.30;;;;;;;11.00;71.24;99751.85;52556;1275;1017086;-64
2022/05/30 04:14:54;;;;;;;6.90;1.10;;;;;;;11.02;71.22;99751.55;52503;1276;1016675;-64
2022/05/30 04:17:24;;;;;;;5.50;1.30;;;;;;;11.03;71.42;99750.64;52504;1276;1018649;-63
2022/05/30 04:19:54;;;;;;;5.60;1.10;;;;;;;11.03;71.21;99748.97;52592;1275;1015884;-63
2022/05/30 04:22:23;;;;;;;5.90;1.00;;;;;;;11.04;71.29;99749.95;52627;1274;1016245;-63
2022/05/30 04:24:53;;;;;;;9.90;1.30;;;;;;;11.05;71.40;99751.59;52529;1274;1017291;-62
2022/05/30 04:27:23;;;;;;;8.10;1.80;;;;;;;11.07;71.50;99751.20;52593;1274;1016564;-63
2022/05/30 04:29:53;;;;;;;7.10;1.30;;;;;;;11.10;71.43;99752.70;52632;1274;1016132;-64
2022/05/30 04:32:23;;;;;;;7.10;1.00;;;;;;;11.14;71.48;99753.69;52534;1274;1016530;-64
2022/05/30 04:34:58;;;;;;;8.80;1.30;;;;;;;11.17;71.30;99756.06;52537;1277;1016619;-64
2022/05/30 04:37:30;;;;;;;6.00;1.10;;;;;;;11.19;71.44;99756.39;52733;1274;1016095;-63
2022/05/30 04:39:59;;;;;;;8.20;1.10;;;;;;;11.22;71.52;99754.73;52594;1274;1016475;-64
2022/05/30 04:42:29;;;;;;;13.00;1.80;;;;;;;11.23;71.60;99756.63;52466;1274;1016272;-63
2022/05/30 04:44:58;;;;;;;4.90;1.10;;;;;;;11.25;71.54;99759.73;52533;1274;1018243;-64
2022/05/30 04:47:35;;;;;;;9.10;1.10;;;;;;;11.24;71.26;99761.52;53396;1274;1016452;-63
2022/05/30 04:50:06;;;;;;;5.80;1.00;;;;;;;11.25;71.24;99762.48;53247;1274;1016325;-65
2022/05/30 04:52:35;;;;;;;7.20;0.90;;;;;;;11.28;71.30;99759.98;52301;1278;1016200;-63
2022/05/30 04:55:06;;;;;;;9.60;0.90;;;;;;;11.31;71.12;99760.30;52564;1274;1016533;-64
2022/05/30 04:57:41;;;;;;;3.40;1.30;;;;;;;11.35;71.20;99764.19;52544;1275;1016271;-64
2022/05/30 05:00:14;;;;;;;4.60;1.00;;;;;;;11.36;71.15;99769.42;52521;1274;1018623;-64
2022/05/30 05:02:43;;;;;;;4.40;0.80;;;;;;;11.37;70.97;99761.30;52584;1274;1016608;-63
2022/05/30 05:05:14;;;;;;;5.70;1.00;;;;;;;11.41;71.16;99768.92;52577;1275;1016470;-63
2022/05/30 05:07:49;;;;;;;3.30;0.70;;;;;;;11.43;70.88;99772.39;52578;1275;1019427;-63
2022/05/30 05:10:37;;;;;;;10.90;1.20;;;;;;;11.45;70.94;99775.86;52580;1274;1016413;-63
2022/05/30 05:13:07;;;;;;;3.60;0.90;;;;;;;11.48;70.85;99774.05;52735;1271;1016600;-63
2022/05/30 05:15:36;;;;;;;3.60;0.70;;;;;;;11.52;70.88;99777.73;52651;1271;1016487;-63
2022/05/30 05:18:07;;;;;;;8.00;1.00;;;;;;;11.52;70.94;99776.06;52626;1272;1016695;-62
2022/05/30 05:20:38;;;;;;;4.90;0.80;;;;;;;11.52;70.80;99774.53;52797;1272;1017269;-63
2022/05/30 05:23:07;;;;;;;4.50;0.90;;;;;;;11.53;70.82;99777.14;52655;1274;1016369;-64
2022/05/30 05:25:39;;;;;;;4.70;0.80;;;;;;;11.56;70.80;99776.39;52748;1272;1016596;-63
2022/05/30 05:28:13;;;;;;;2.80;0.70;;;;;;;11.60;70.74;99773.79;52584;1271;1016330;-63
2022/05/30 05:30:44;;;;;;;6.90;1.00;;;;;;;11.63;70.75;99784.12;52605;1274;1015924;-64
2022/05/30 05:33:14;;;;;;;7.00;0.80;;;;;;;11.65;70.57;99785.89;52611;1272;1017370;-63
2022/05/30 05:35:44;;;;;;;2.50;0.60;;;;;;;11.70;70.46;99786.96;52561;1274;1016127;-64
2022/05/30 05:38:15;;;;;;;5.60;0.90;;;;;;;11.73;70.29;99787.13;52578;1274;1016777;-63
2022/05/30 05:40:46;;;;;;;2.90;0.70;;;;;;;11.73;70.15;99790.33;52729;1271;1016794;-63
2022/05/30 05:43:14;;;;;;;;;;;;;;;11.75;70.23;99792.53;52565;1271;1017004;-63
2022/05/30 05:45:46;;;;;;;3.10;0.70;;;;;;;11.78;70.39;99792.41;52624;1274;1016466;-63
2022/05/30 05:48:15;;;;;;;4.60;0.70;;;;;;;11.81;70.33;99793.48;52585;1274;1016475;-62
2022/05/30 05:50:46;;;;;;;3.50;0.70;;;;;;;11.86;70.48;99790.52;52667;1271;1015939;-63
2022/05/30 05:53:15;;;;;;;5.50;1.20;;;;;;;11.91;70.51;99788.13;52654;1271;1016481;-62
2022/05/30 05:55:44;;;;;;;4.80;0.80;;;;;;;11.96;70.42;99789.36;52767;1271;1016678;-63
2022/05/30 05:58:18;;;;;;;6.40;0.80;;;;;;;12.01;70.23;99785.28;52762;1274;1016686;-63
2022/05/30 06:00:47;;;;;;;3.00;0.70;;;;;;;12.08;70.03;99784.65;52797;1274;1016460;-63
2022/05/30 06:03:16;;;;;;;4.20;0.80;;;;;;;12.13;69.90;99783.46;52718;1272;1016585;-63
2022/05/30 06:05:45;;;;;;;4.90;0.80;;;;;;;12.19;70.06;99784.02;52571;1271;1016376;-63
2022/05/30 06:08:14;;;;;;;4.10;1.10;;;;;;;12.27;70.01;99788.92;52689;1271;1016183;-62
2022/05/30 06:13:29;;;;;;;3.10;0.90;;;;;;;12.38;69.89;99787.41;52610;1272;1017440;-63
2022/05/30 06:15:59;;;;;;;7.30;1.00;;;;;;;12.43;69.82;99792.98;52615;1271;1017096;-63
2022/05/30 06:18:29;;;;;;;7.20;1.10;;;;;;;12.45;69.58;99789.36;52740;1271;1016280;-63
2022/05/30 06:21:00;;;;;;;8.20;1.10;;;;;;;12.51;69.27;99787.55;52636;1274;1017627;-63
2022/05/30 06:23:32;;;;;;;6.10;1.00;;;;;;;12.56;69.48;99788.39;52603;1271;1016536;-63
2022/05/30 06:26:04;;;;;;;5.20;1.10;;;;;;;12.62;69.45;99791.31;52717;1271;1016661;-63
2022/05/30 06:28:35;;;;;;;4.80;1.10;;;;;;;12.69;69.39;99790.05;52642;1270;1015932;-63
2022/05/30 06:31:09;;;;;;;7.90;1.20;;;;;;;12.72;69.25;99794.87;52732;1271;1017304;-63
2022/05/30 06:33:38;;;;;;;10.30;1.70;;;;;;;12.74;68.94;99797.05;52603;1272;1016219;-64
2022/05/30 06:36:10;;;;;;;7.50;1.70;;;;;;;12.73;68.95;99797.45;52606;1272;1018529;-63
2022/05/30 06:38:39;;;;;;;9.20;1.60;;;;;;;12.74;68.95;99797.16;52623;1274;1016606;-63
2022/05/30 06:41:12;;;;;;;12.60;1.70;;;;;;;12.75;69.04;99802.20;52663;1273;1016257;-63
2022/05/30 06:43:42;;;;;;;10.50;2.20;;;;;;;12.73;68.91;99803.92;52626;1272;1016200;-63
2022/05/30 06:46:12;;;;;;;9.70;2.30;;;;;;;12.73;69.13;99807.04;52636;1271;1020234;-63
2022/05/30 06:51:21;;;;;;;7.90;2.30;;;;;;;12.73;68.92;99817.73;52802;1274;1016567;-53
2022/05/30 06:53:51;;;;;;;9.90;2.20;;;;;;;12.69;68.94;99820.52;52547;1275;1016479;-50
2022/05/30 06:56:22;;;;;;;8.10;1.60;;;;;;;12.68;68.94;99818.88;52584;1274;1016485;-48
2022/05/30 06:58:54;;;;;;;8.30;1.80;;;;;;;12.66;69.05;99820.45;52682;1274;1016674;-49
2022/05/30 07:01:26;;;;;;;7.00;1.60;;;;;;;12.63;69.01;99825.19;52626;1274;1016297;-51
2022/05/30 07:03:55;;;;;;;6.10;0.90;;;;;;;12.62;68.64;99824.36;52579;1274;1016552;-48
2022/05/30 07:06:28;;;;;;;6.40;1.00;;;;;;;12.50;68.03;99825.48;52581;1274;1015975;-52
2022/05/30 07:08:57;;;;;;;4.90;1.00;;;;;;;12.38;68.29;99831.98;52534;1274;1016619;-48
2022/05/30 07:11:26;;;;;;;4.80;0.90;;;;;;;12.28;68.34;99828.88;52686;1274;1016532;-49
2022/05/30 07:13:56;;;;;;;7.70;1.30;;;;;;;12.21;68.48;99830.42;52612;1274;1018720;-50
2022/05/30 07:16:25;;;;;;;8.20;1.30;;;;;;;12.15;68.55;99828.96;52656;1273;1016349;-48
2022/05/30 07:18:56;;;;;;;5.20;0.80;;;;;;;12.09;68.65;99826.68;52596;1274;1016049;-48
2022/05/30 07:21:25;;;;;;;6.90;1.10;;;;;;;11.98;68.74;99826.10;52573;1274;1016723;-50
2022/05/30 07:23:54;;;;;;;7.00;1.10;;;;;;;11.91;68.99;99828.74;52671;1274;1016555;-48
2022/05/30 07:26:24;;;;;;;3.70;0.90;;;;;;;11.83;69.03;99832.10;52539;1274;1018055;-50
2022/05/30 07:28:53;;;;;;;5.60;1.20;;;;;;;11.77;69.29;99832.98;52591;1274;1017061;-49
2022/05/30 07:31:25;;;;;;;5.10;1.00;;;;;;;11.71;69.54;99832.77;52602;1273;1016160;-49
2022/05/30 07:33:55;;;;;;;9.00;1.00;;;;;;;11.66;70.22;99832.98;52626;1274;1016480;-49
2022/05/30 07:36:26;;;;;;;6.20;1.20;;;;;;;11.64;70.38;99835.39;52634;1274;1016189;-50
2022/05/30 07:38:56;;;;;;;7.70;1.20;;;;;;;11.64;70.79;99836.70;52531;1274;1016275;-48
2022/05/30 07:41:28;;;;;;;5.90;1.20;;;;;;;11.64;71.38;99837.73;52506;1274;1016589;-48
2022/05/30 07:43:58;;;;;;;7.40;1.30;;;;;;;11.61;71.15;99841.20;52569;1274;1016506;-49
2022/05/30 07:46:28;;;;;;;12.10;1.50;;;;;;;11.60;71.16;99838.61;52894;1274;1016631;-50
2022/05/30 07:48:57;;;;;;;7.30;1.20;;;;;;;11.58;71.24;99841.47;52677;1274;1018551;-50
2022/05/30 07:51:26;;;;;;;6.00;1.00;;;;;;;11.57;71.61;99836.23;52601;1274;1016917;-49
2022/05/30 07:53:56;;;;;;;6.30;1.10;;;;;;;11.62;71.88;99842.01;52658;1274;1016672;-50
2022/05/30 07:56:26;;;;;;;5.30;1.00;;;;;;;11.66;71.99;99841.11;52723;1274;1016455;-49
2022/05/30 07:58:56;;;;;;;6.70;1.10;;;;;;;11.70;72.00;99845.92;52691;1274;1016611;-49
2022/05/30 08:01:25;;;;;;;7.00;1.30;;;;;;;11.77;72.05;99849.84;52705;1274;1016868;-50
2022/05/30 08:03:54;;;;;;;6.00;1.10;;;;;;;11.86;72.34;99850.48;52615;1274;1016570;-49
2022/05/30 08:06:26;;;;;;;5.90;0.90;;;;;;;11.94;72.38;99852.20;52620;1274;1017842;-51
2022/05/30 08:08:56;;;;;;;5.40;1.20;;;;;;;11.99;71.50;99854.34;52689;1274;1016145;-55
2022/05/30 08:11:26;;;;;;;7.30;0.80;;;;;;;12.04;71.42;99854.67;52608;1274;1016415;-52
2022/05/30 08:13:55;;;;;;;5.30;0.90;;;;;;;12.06;71.24;99852.36;52672;1273;1016539;-53
2022/05/30 08:16:26;;;;;;;7.60;0.90;;;;;;;12.09;71.24;99856.29;52576;1274;1016685;-49
2022/05/30 08:18:56;;;;;;;5.40;0.90;;;;;;;12.12;70.72;99853.81;52675;1273;1016309;-52
2022/05/30 08:21:27;;;;;;;5.50;1.00;;;;;;;12.13;71.05;99857.39;52619;1273;1016806;-53
2022/05/30 08:23:57;;;;;;;5.70;1.10;;;;;;;12.18;71.31;99857.32;52626;1274;1017216;-49
2022/05/30 08:26:27;;;;;;;6.40;1.00;;;;;;;12.24;71.22;99854.55;52654;1273;1016570;-50
2022/05/30 08:28:56;;;;;;;7.20;1.10;;;;;;;12.28;71.04;99859.56;52715;1274;1016525;-49
2022/05/30 08:31:25;;;;;;;5.10;1.00;;;;;;;12.31;70.73;99861.30;52637;1273;1019098;-52
2022/05/30 08:33:54;;;;;;;7.30;1.30;;;;;;;12.32;70.71;99861.37;52595;1274;1016560;-49
2022/05/30 08:36:23;;;;;;;8.90;1.50;;;;;;;12.39;71.04;99857.19;52653;1273;1016641;-51
2022/05/30 08:41:46;;;;;;;3.60;1.00;;;;;;;12.50;71.37;99860.36;52625;1273;1016436;-53
2022/05/30 08:41:48;;;;;;;8.00;1.00;;;;;;;12.62;71.12;99858.52;52516;1275;1015928;-53
2022/05/30 08:44:18;;;;;;;9.90;1.40;;;;;;;12.73;71.21;99862.54;52567;1273;1016039;-50
2022/05/30 08:46:57;;;;;;;5.30;1.00;;;;;;;12.82;70.54;99865.11;52597;1273;1016702;-50
2022/05/30 08:49:33;;;;;;;4.00;0.90;;;;;;;12.87;70.07;99864.98;52611;1273;1018980;-50
2022/05/30 08:52:41;;;;;;;7.90;1.30;;;;;;;12.90;69.69;99868.58;52676;1273;1016592;-49
2022/05/30 08:55:20;;;;;;;5.90;1.40;;;;;;;12.94;70.07;99867.91;52583;1274;1016211;-51
2022/05/30 08:58:05;;;;;;;5.50;1.10;;;;;;;13.02;70.09;99867.74;52551;1273;1016674;-52
2022/05/30 09:00:38;;;;;;;6.20;1.20;;;;;;;13.08;69.76;99867.13;52599;1273;1016187;-50
2022/05/30 09:03:13;;;;;;;3.80;0.90;;;;;;;13.14;69.37;99868.62;52586;1274;1016338;-51
2022/05/30 09:05:47;;;;;;;7.40;1.10;;;;;;;13.20;68.50;99869.77;52605;1274;1015952;-52
2022/05/30 09:08:25;;;;;;;8.50;0.90;;;;;;;13.29;68.80;99870.13;52571;1274;1016908;-52
2022/05/30 09:10:57;;;;;;;8.70;1.20;;;;;;;13.48;69.28;99871.70;52659;1273;1016705;-52
2022/05/30 09:13:35;;;;;;;6.70;0.80;;;;;;;13.69;68.39;99869.83;52593;1273;1016282;-52
2022/05/30 09:16:14;;;;;;;4.80;0.90;;;;;;;13.83;67.69;99874.89;52611;1273;1015962;-54
2022/05/30 09:18:46;;;;;;;5.20;1.30;;;;;;;13.91;67.74;99874.98;52640;1273;1016707;-51
2022/05/30 09:21:17;;;;;;;5.50;1.00;;;;;;;13.97;67.62;99875.13;52653;1273;1016702;-52
2022/05/30 09:23:47;;;;;;;6.90;1.20;;;;;;;13.97;67.56;99877.13;52600;1273;1016698;-53
2022/05/30 09:26:21;;;;;;;7.70;1.30;;;;;;;14.02;67.53;99879.46;52534;1275;1018412;-53
2022/05/30 09:28:53;;;;;;;7.60;1.20;;;;;;;14.05;66.94;99880.74;52618;1275;1016459;-53
2022/05/30 09:31:34;;;;;;;3.30;0.80;;;;;;;14.09;67.06;99879.27;52582;1275;1016672;-53
2022/05/30 09:34:32;;;;;;;3.60;0.90;;;;;;;14.15;66.45;99880.84;52555;1274;1016675;-53
2022/05/30 09:37:01;;;;;;;5.20;0.70;;;;;;;14.22;66.39;99874.34;52604;1273;1016752;-52
2022/05/30 09:39:46;;;;;;;5.20;1.00;;;;;;;14.31;66.22;99878.44;52491;1275;1016714;-49
2022/05/30 09:42:27;;;;;;;5.60;0.90;;;;;;;14.40;66.25;99880.05;52687;1274;1016165;-52
2022/05/30 09:44:59;;;;;;;7.60;1.30;;;;;;;14.46;66.14;99876.31;52603;1274;1016750;-49
2022/05/30 09:47:29;;;;;;;4.90;1.00;;;;;;;14.51;66.42;99879.88;52618;1273;1016752;-52
2022/05/30 09:50:09;;;;;;;4.30;0.90;;;;;;;14.60;65.47;99882.30;52633;1274;1016088;-48
2022/05/30 09:52:42;;;;;;;3.30;0.90;;;;;;;14.63;65.05;99884.43;52628;1273;1016498;-49
2022/05/30 09:55:31;;;;;;;4.50;1.00;;;;;;;14.61;63.49;99886.84;52680;1273;1015810;-49
2022/05/30 09:58:02;;;;;;;3.60;0.80;;;;;;;14.57;63.39;99887.01;52816;1273;1016693;-49
2022/05/30 10:00:41;;;;;;;5.70;0.90;;;;;;;14.57;63.96;99882.20;52725;1273;1017049;-50
2022/05/30 10:03:25;;;;;;;6.10;1.00;;;;;;;14.64;64.09;99888.42;52712;1273;1016633;-50
2022/05/30 10:06:13;;;;;;;6.80;1.40;;;;;;;14.65;63.84;99888.86;52619;1273;1016443;-49
2022/05/30 10:08:46;;;;;;;6.80;1.10;;;;;;;14.68;63.97;99887.34;52642;1273;1017387;-53
2022/05/30 10:11:32;;;;;;;3.70;0.70;;;;;;;14.76;63.66;99885.06;52675;1273;1016408;-53
2022/05/30 10:14:16;;;;;;;4.40;0.90;;;;;;;14.86;62.35;99879.14;52666;1273;1016207;-52
2022/05/30 10:16:46;;;;;;;4.30;0.70;;;;;;;14.85;61.98;99879.40;52641;1273;1016695;-53
2022/05/30 10:19:26;;;;;;;3.60;0.70;;;;;;;14.90;62.70;99879.89;52646;1273;1016691;-51
2022/05/30 10:28:16;;;;;;;4.70;0.90;;;;;;;15.12;62.90;99875.03;52669;1273;1016375;-50
2022/05/30 10:30:58;;;;;;;3.10;0.60;;;;;;;15.31;61.58;99875.59;52769;1273;1016759;-50
2022/05/30 10:33:52;;;;;;;3.10;0.70;;;;;;;15.38;59.93;99875.95;52774;1273;1016536;-49
2022/05/30 10:36:29;;;;;;;5.20;0.60;;;;;;;15.40;59.88;99875.44;52579;1273;1015891;-51
2022/05/30 10:39:13;;;;;;;2.60;0.50;;;;;;;15.50;59.60;99878.20;52668;1273;1016210;-50
2022/05/30 10:41:48;;;;;;;3.20;0.60;;;;;;;15.59;58.81;99874.46;52596;1273;1016705;-51
2022/05/30 10:44:21;;;;;;;2.20;0.30;;;;;;;15.60;58.10;99879.41;52649;1273;1015891;-52
2022/05/30 10:47:01;;;;;;;2.20;0.40;;;;;;;15.65;57.72;99872.94;52650;1273;1016889;-50
2022/05/30 10:49:36;;;;;;;4.00;0.40;;;;;;;15.71;57.73;99877.48;52749;1273;1015985;-52
2022/05/30 10:52:14;;;;;;;1.60;0.40;;;;;;;15.81;57.72;99872.71;52688;1273;1017509;-52
2022/05/30 10:54:47;;;;;;;1.30;0.30;;;;;;;15.92;58.11;99873.48;52664;1273;1016442;-52
2022/05/30 10:57:22;;;;;;;1.90;0.50;;;;;;;16.01;57.46;99867.38;52759;1273;1016677;-53
2022/05/30 10:59:58;;;;;;;1.40;0.20;;;;;;;15.99;56.96;99868.15;52660;1273;1016842;-53
2022/05/30 11:02:37;;;;;;;1.50;0.30;;;;;;;16.00;56.79;99870.14;52595;1273;1016335;-49
2022/05/30 11:05:12;;;;;;;2.20;0.40;;;;;;;16.09;56.83;99867.09;52636;1273;1016457;-54
2022/05/30 11:07:49;;;;;;;2.50;0.30;;;;;;;16.13;56.23;99865.77;52699;1273;1016259;-53
2022/05/30 11:10:38;;;;;;;2.20;0.40;;;;;;;16.18;55.96;99862.50;52694;1273;1015961;-50
2022/05/30 11:13:17;;;;;;;1.50;0.30;;;;;;;16.24;56.17;99867.36;52684;1273;1016363;-53
2022/05/30 11:15:51;;;;;;;2.80;0.40;;;;;;;16.33;56.19;99867.47;52710;1273;1016742;-55
2022/05/30 11:18:30;;;;;;;3.00;0.40;;;;;;;16.42;55.99;99869.59;52629;1273;1015811;-54
2022/05/30 11:21:06;;;;;;;0.90;0.30;;;;;;;16.49;55.24;99868.55;52710;1273;1017873;-54
2022/05/30 11:23:35;;;;;;;2.00;0.30;;;;;;;16.51;54.34;99875.24;52738;1273;1016476;-54
2022/05/30 11:26:39;;;;;;;2.70;0.30;;;;;;;16.54;54.32;99865.89;52714;1273;1015995;-53
2022/05/30 11:29:26;;;;;;;4.90;0.50;;;;;;;16.55;53.85;99866.81;52613;1273;1016513;-52
2022/05/30 11:32:02;;;;;;;2.10;0.40;;;;;;;16.53;54.67;99866.61;52707;1273;1016701;-51
2022/05/30 11:34:48;;;;;;;2.20;0.40;;;;;;;16.65;54.83;99873.24;52832;1273;1016530;-54
2022/05/30 11:37:45;;;;;;;3.50;0.30;;;;;;;16.68;53.64;99865.33;52694;1273;1016439;-52
2022/05/30 11:40:25;;;;;;;1.90;0.30;;;;;;;16.70;54.00;99863.61;52779;1273;1016814;-53
2022/05/30 11:43:09;;;;;;;3.20;0.40;;;;;;;16.81;53.88;99866.34;52785;1273;1016584;-50
2022/05/30 11:45:53;;;;;;;3.50;0.30;;;;;;;16.90;53.62;99869.05;52728;1273;1016542;-50
2022/05/30 11:48:35;;;;;;;1.50;0.40;;;;;;;16.95;53.30;99861.55;52640;1273;1016733;-50
2022/05/30 11:51:21;;;;;;;1.80;0.40;;;;;;;17.01;53.07;99858.76;52605;1273;1016409;-54
2022/05/30 11:54:25;;;;;;;2.20;0.30;;;;;;;17.01;52.08;99859.12;52562;1273;1016509;-52
2022/05/30 11:57:07;;;;;;;1.60;0.30;;;;;;;17.00;53.35;99858.67;52694;1273;1016191;-53
2022/05/30 12:00:07;;;;;;;2.40;0.40;;;;;;;17.13;52.90;99863.92;52581;1273;1019627;-52
2022/05/30 12:02:52;;;;;;;2.30;0.40;;;;;;;17.23;52.40;99859.32;52605;1273;1016648;-53